• Join FlightAware (Why Join?)
  • Login
  • US Flag 
08:57PM EST


 

Airport Tracker/Info


-or-


 

Live Flight TrackerFlight Track Log ✈ N478DR ✈ 18-Mar-2014 ✈ KUES - KSTP

Flight Track Log - Related Links

Times and Time Zones

All times are in EDT time to prevent confusion due to time zone crossing. See the N478DR flight status page for this flight to view local times or setup timezone preferences in your user account.

Time Position Orientation Groundspeed Altitude Reporting Facility
EDT Latitude Longitude Course Direction KTS MPH feet Rate Location/Type
12:18PM 43.0333 -88.2167 45° Northeast 157 181 1,600  Level KMKE
12:19PM 43.0594 -88.1814 45° Northeast 227 261 2,900 2,760 Climbing Minneapolis Center
12:20PM 43.1211 -88.1831 359° North 275 316 5,600 3,240 Climbing Chicago Center
12:21PM 43.1925 -88.2294 335° Northwest 291 335 8,600 2,460 Climbing Chicago Center
12:22PM 43.2628 -88.3008 324° Northwest 308 354 10,800 2,100 Climbing Chicago Center
12:23PM 43.3225 -88.4033 309° West 341 392 13,000 2,100 Climbing Chicago Center
12:24PM 43.3808 -88.5217 304° West 362 417 15,200 2,160 Climbing Chicago Center
12:25PM 43.4425 -88.6453 305° West 377 434 17,500 2,160 Climbing Chicago Center
12:26PM 43.5028 -88.7667 304° West 381 438 19,700 2,280 Climbing Chicago Center
12:27PM 43.5742 -88.9136 304° West 384 442 22,300 2,040 Climbing Chicago Center
12:28PM 43.6333 -89.0353 304° West 383 441 24,000 780 Climbing Chicago Center
12:29PM 43.6950 -89.1667 303° West 404 465 24,000  Level Chicago Center
12:30PM 43.7600 -89.3003 304° West 418 481 24,000  Level Chicago Center
12:31PM 43.8242 -89.4322 304° West 415 478 24,000  Level Chicago Center
12:32PM 43.8886 -89.5658 304° West 416 479 24,000  Level Chicago Center
12:33PM 43.9653 -89.7267 304° West 417 480 24,000  Level Chicago Center
12:34PM 44.0250 -89.8656 301° West 420 483 24,000  Level Chicago Center
12:35PM 44.0756 -90.0086 296° West 416 479 24,000  Level Chicago Center
12:36PM 44.1269 -90.1508 297° West 414 476 24,000  Level Chicago Center
12:37PM 44.1828 -90.3078 296° West 413 475 24,000  Level Chicago Center
12:38PM 44.2347 -90.4492 297° West 413 475 24,000  Level Chicago Center
12:39PM 44.2850 -90.5922 296° West 414 476 24,000  Level Chicago Center
12:40PM 44.3358 -90.7336 297° West 413 475 24,000  Level Chicago Center
12:41PM 44.3861 -90.8761 296° West 413 475 24,000  Level Chicago Center
12:43PM 44.4481 -91.0500 297° West 419 482 24,000 -180 Level Chicago Center
12:44PM 44.4975 -91.1931 296° West 415 478 23,700 -1,200 Descending Chicago Center
12:45PM 44.5483 -91.3353 297° West 413 475 21,600 -2,100 Descending Chicago Center
12:46PM 44.5950 -91.4733 295° West 401 461 19,400 -2,340 Descending Chicago Center
12:47PM 44.6589 -91.6561 296° West 387 445 16,200 -2,340 Descending Minneapolis Center
12:48PM 44.7031 -91.7897 295° West 383 441 14,000 -2,160 Descending Minneapolis Center
12:49PM 44.7483 -91.9203 296° West 378 435 11,800 -2,220 Descending Minneapolis Center
12:50PM 44.7908 -92.0428 296° West 347 399 9,500 -2,400 Descending Minneapolis Center
12:51PM 44.8308 -92.1647 295° West 286 329 6,900 -1,740 Descending Minneapolis Center
12:52PM 44.8622 -92.2594 295° West 272 313 6,000 -480 Descending Minneapolis Center
12:53PM 44.8936 -92.3597 294° West 276 318 6,000 -180 Level Minneapolis Center
12:54PM 44.9192 -92.4633 289° West 278 320 5,700 -720 Descending Minneapolis Center
12:55PM 44.9236 -92.5697 273° West 275 316 4,600 -1,020 Descending Minneapolis Center
12:56PM 44.9264 -92.6839 272° West 288 331 3,600 -780 Descending Minneapolis Center
12:57PM 44.9292 -92.8061 272° West 263 303 3,000 -360 Descending Minneapolis Center
12:58PM 44.9336 -92.9000 274° West 246 283 2,900 -300 Descending Minneapolis Center
12:59PM 44.9486 -92.9919 283° West 243 280 2,400 -420 Descending Minneapolis Center
01:00PM 44.9664 -93.0689 288° West 200 230 2,100 -780 Descending Minneapolis Center
01:01PM 44.9350 -93.0528 160° South 145 167 900 -1,200 Descending Minneapolis Center
01:03PM 44.9333 -93.0500 133° Southeast  Level FlightAware Approximate
01:10PM 44.9346 -93.0603 133° Southeast  Level Estimated